sensor_id;sensor_type;location;lat;lon;timestamp;P1;durP1;ratioP1;P2;durP2;ratioP2
60038;SDS011;45916;52.734;6.544;2022-12-18T00:00:47;108.00;;;50.58;;
60038;SDS011;45916;52.734;6.544;2022-12-18T00:03:15;114.37;;;54.50;;
60038;SDS011;45916;52.734;6.544;2022-12-18T00:05:51;110.93;;;50.83;;
60038;SDS011;45916;52.734;6.544;2022-12-18T00:08:17;91.13;;;44.70;;
60038;SDS011;45916;52.734;6.544;2022-12-18T00:10:44;100.40;;;48.88;;
60038;SDS011;45916;52.734;6.544;2022-12-18T00:13:10;104.37;;;50.03;;
60038;SDS011;45916;52.734;6.544;2022-12-18T00:15:37;102.33;;;49.77;;
60038;SDS011;45916;52.734;6.544;2022-12-18T00:18:04;108.57;;;48.87;;
60038;SDS011;45916;52.734;6.544;2022-12-18T00:20:31;91.90;;;43.77;;
60038;SDS011;45916;52.734;6.544;2022-12-18T00:23:00;101.17;;;48.83;;
60038;SDS011;45916;52.734;6.544;2022-12-18T00:25:26;93.25;;;44.78;;
60038;SDS011;45916;52.734;6.544;2022-12-18T00:27:51;95.80;;;49.30;;
60038;SDS011;45916;52.734;6.544;2022-12-18T00:30:17;102.50;;;53.65;;
60038;SDS011;45916;52.734;6.544;2022-12-18T00:32:43;109.72;;;55.83;;
60038;SDS011;45916;52.734;6.544;2022-12-18T00:35:09;101.07;;;53.08;;
60038;SDS011;45916;52.734;6.544;2022-12-18T00:37:34;104.32;;;54.22;;
60038;SDS011;45916;52.734;6.544;2022-12-18T00:40:00;107.20;;;55.30;;
60038;SDS011;45916;52.734;6.544;2022-12-18T00:42:26;113.97;;;56.07;;
60038;SDS011;45916;52.734;6.544;2022-12-18T00:45:10;107.80;;;55.43;;
60038;SDS011;45916;52.734;6.544;2022-12-18T00:47:36;111.60;;;58.73;;
60038;SDS011;45916;52.734;6.544;2022-12-18T00:50:02;109.73;;;53.03;;
60038;SDS011;45916;52.734;6.544;2022-12-18T00:52:27;117.30;;;57.77;;
60038;SDS011;45916;52.734;6.544;2022-12-18T00:54:53;117.10;;;60.90;;
60038;SDS011;45916;52.734;6.544;2022-12-18T00:57:19;120.97;;;59.57;;
60038;SDS011;45916;52.734;6.544;2022-12-18T00:59:44;107.35;;;55.17;;
60038;SDS011;45916;52.734;6.544;2022-12-18T01:02:10;110.63;;;56.47;;
60038;SDS011;45916;52.734;6.544;2022-12-18T01:04:36;105.28;;;58.83;;
60038;SDS011;45916;52.734;6.544;2022-12-18T01:07:01;110.57;;;56.80;;
60038;SDS011;45916;52.734;6.544;2022-12-18T01:09:27;110.13;;;56.90;;
60038;SDS011;45916;52.734;6.544;2022-12-18T01:11:53;95.07;;;52.67;;
60038;SDS011;45916;52.734;6.544;2022-12-18T01:14:19;96.30;;;53.45;;
60038;SDS011;45916;52.734;6.544;2022-12-18T01:16:45;99.87;;;56.37;;
60038;SDS011;45916;52.734;6.544;2022-12-18T01:19:10;103.67;;;54.83;;
60038;SDS011;45916;52.734;6.544;2022-12-18T01:21:36;106.30;;;56.47;;
60038;SDS011;45916;52.734;6.544;2022-12-18T01:24:02;106.82;;;53.42;;
60038;SDS011;45916;52.734;6.544;2022-12-18T01:26:27;99.73;;;52.60;;
60038;SDS011;45916;52.734;6.544;2022-12-18T01:28:55;98.90;;;51.00;;
60038;SDS011;45916;52.734;6.544;2022-12-18T01:31:23;101.53;;;51.43;;
60038;SDS011;45916;52.734;6.544;2022-12-18T01:36:17;102.17;;;54.97;;
60038;SDS011;45916;52.734;6.544;2022-12-18T01:38:45;103.30;;;55.20;;
60038;SDS011;45916;52.734;6.544;2022-12-18T01:41:12;101.30;;;50.20;;
60038;SDS011;45916;52.734;6.544;2022-12-18T01:43:45;99.40;;;53.10;;
60038;SDS011;45916;52.734;6.544;2022-12-18T01:46:11;105.00;;;53.53;;
60038;SDS011;45916;52.734;6.544;2022-12-18T01:48:37;111.03;;;54.83;;
60038;SDS011;45916;52.734;6.544;2022-12-18T01:51:04;116.50;;;58.03;;
60038;SDS011;45916;52.734;6.544;2022-12-18T01:53:32;112.75;;;58.95;;
60038;SDS011;45916;52.734;6.544;2022-12-18T01:55:58;121.80;;;56.80;;
60038;SDS011;45916;52.734;6.544;2022-12-18T02:01:20;120.67;;;55.30;;
60038;SDS011;45916;52.734;6.544;2022-12-18T02:03:47;117.55;;;59.35;;
60038;SDS011;45916;52.734;6.544;2022-12-18T02:27:54;104.60;;;56.13;;
60038;SDS011;45916;52.734;6.544;2022-12-18T02:30:24;108.37;;;53.83;;
60038;SDS011;45916;52.734;6.544;2022-12-18T02:32:54;103.90;;;52.30;;
60038;SDS011;45916;52.734;6.544;2022-12-18T02:35:24;110.87;;;53.83;;
60038;SDS011;45916;52.734;6.544;2022-12-18T02:37:53;112.03;;;54.87;;
60038;SDS011;45916;52.734;6.544;2022-12-18T02:40:20;104.93;;;54.87;;
60038;SDS011;45916;52.734;6.544;2022-12-18T02:42:48;104.05;;;53.83;;
60038;SDS011;45916;52.734;6.544;2022-12-18T02:45:14;97.73;;;52.97;;
60038;SDS011;45916;52.734;6.544;2022-12-18T02:47:40;95.23;;;52.90;;
60038;SDS011;45916;52.734;6.544;2022-12-18T02:50:19;112.30;;;57.30;;
60038;SDS011;45916;52.734;6.544;2022-12-18T02:58:29;104.40;;;53.67;;
60038;SDS011;45916;52.734;6.544;2022-12-18T03:03:35;99.07;;;51.73;;
60038;SDS011;45916;52.734;6.544;2022-12-18T03:06:11;102.17;;;56.23;;
60038;SDS011;45916;52.734;6.544;2022-12-18T03:08:53;114.97;;;56.00;;
60038;SDS011;45916;52.734;6.544;2022-12-18T03:11:32;102.27;;;54.80;;
60038;SDS011;45916;52.734;6.544;2022-12-18T03:14:21;105.93;;;54.77;;
60038;SDS011;45916;52.734;6.544;2022-12-18T03:16:49;107.18;;;57.30;;
60038;SDS011;45916;52.734;6.544;2022-12-18T03:19:20;98.87;;;54.50;;
60038;SDS011;45916;52.734;6.544;2022-12-18T03:21:49;101.70;;;52.90;;
60038;SDS011;45916;52.734;6.544;2022-12-18T03:24:18;101.53;;;51.03;;
60038;SDS011;45916;52.734;6.544;2022-12-18T03:26:47;89.77;;;49.97;;
60038;SDS011;45916;52.734;6.544;2022-12-18T03:29:27;105.00;;;52.87;;
60038;SDS011;45916;52.734;6.544;2022-12-18T03:32:10;90.30;;;50.87;;
60038;SDS011;45916;52.734;6.544;2022-12-18T03:34:43;93.40;;;51.53;;
60038;SDS011;45916;52.734;6.544;2022-12-18T03:37:12;94.60;;;50.80;;
60038;SDS011;45916;52.734;6.544;2022-12-18T03:39:38;87.93;;;52.73;;
60038;SDS011;45916;52.734;6.544;2022-12-18T03:44:48;90.00;;;52.43;;
60038;SDS011;45916;52.734;6.544;2022-12-18T03:50:13;82.85;;;49.00;;
60038;SDS011;45916;52.734;6.544;2022-12-18T03:55:19;88.80;;;48.60;;
60038;SDS011;45916;52.734;6.544;2022-12-18T03:57:47;84.28;;;46.25;;
60038;SDS011;45916;52.734;6.544;2022-12-18T04:00:14;84.47;;;47.90;;
60038;SDS011;45916;52.734;6.544;2022-12-18T04:02:44;80.83;;;47.10;;
60038;SDS011;45916;52.734;6.544;2022-12-18T04:05:14;87.33;;;47.20;;
60038;SDS011;45916;52.734;6.544;2022-12-18T04:07:42;83.13;;;45.90;;
60038;SDS011;45916;52.734;6.544;2022-12-18T04:10:10;82.88;;;45.13;;
60038;SDS011;45916;52.734;6.544;2022-12-18T04:12:37;76.67;;;45.00;;
60038;SDS011;45916;52.734;6.544;2022-12-18T04:15:03;80.40;;;44.57;;
60038;SDS011;45916;52.734;6.544;2022-12-18T04:17:30;74.10;;;46.90;;
60038;SDS011;45916;52.734;6.544;2022-12-18T04:19:55;88.10;;;47.77;;
60038;SDS011;45916;52.734;6.544;2022-12-18T04:22:21;77.00;;;43.63;;
60038;SDS011;45916;52.734;6.544;2022-12-18T04:24:46;74.67;;;42.07;;
60038;SDS011;45916;52.734;6.544;2022-12-18T04:27:12;80.30;;;45.07;;
60038;SDS011;45916;52.734;6.544;2022-12-18T04:29:39;71.97;;;40.10;;
60038;SDS011;45916;52.734;6.544;2022-12-18T04:32:04;75.53;;;44.97;;
60038;SDS011;45916;52.734;6.544;2022-12-18T04:34:30;74.60;;;43.27;;
60038;SDS011;45916;52.734;6.544;2022-12-18T04:36:56;66.23;;;38.50;;
60038;SDS011;45916;52.734;6.544;2022-12-18T04:39:22;70.47;;;42.13;;
60038;SDS011;45916;52.734;6.544;2022-12-18T04:41:47;61.23;;;38.47;;
60038;SDS011;45916;52.734;6.544;2022-12-18T04:44:13;60.27;;;39.70;;
60038;SDS011;45916;52.734;6.544;2022-12-18T04:46:39;71.70;;;40.83;;
60038;SDS011;45916;52.734;6.544;2022-12-18T04:49:04;62.73;;;39.67;;
60038;SDS011;45916;52.734;6.544;2022-12-18T04:51:30;65.27;;;38.67;;
60038;SDS011;45916;52.734;6.544;2022-12-18T04:53:56;65.43;;;40.80;;
60038;SDS011;45916;52.734;6.544;2022-12-18T04:56:22;62.53;;;37.40;;
60038;SDS011;45916;52.734;6.544;2022-12-18T04:58:48;60.23;;;37.30;;
60038;SDS011;45916;52.734;6.544;2022-12-18T05:01:15;64.90;;;41.47;;
60038;SDS011;45916;52.734;6.544;2022-12-18T05:03:41;62.60;;;38.93;;
60038;SDS011;45916;52.734;6.544;2022-12-18T05:06:07;56.97;;;35.63;;
60038;SDS011;45916;52.734;6.544;2022-12-18T05:08:34;62.13;;;37.77;;
60038;SDS011;45916;52.734;6.544;2022-12-18T05:11:00;62.70;;;36.80;;
60038;SDS011;45916;52.734;6.544;2022-12-18T05:15:54;54.53;;;35.73;;
60038;SDS011;45916;52.734;6.544;2022-12-18T05:18:20;50.40;;;33.87;;
60038;SDS011;45916;52.734;6.544;2022-12-18T05:20:46;48.33;;;32.73;;
60038;SDS011;45916;52.734;6.544;2022-12-18T05:23:12;59.30;;;36.73;;
60038;SDS011;45916;52.734;6.544;2022-12-18T05:25:38;60.43;;;34.97;;
60038;SDS011;45916;52.734;6.544;2022-12-18T05:28:03;54.27;;;31.97;;
60038;SDS011;45916;52.734;6.544;2022-12-18T05:30:29;49.93;;;33.10;;
60038;SDS011;45916;52.734;6.544;2022-12-18T05:32:55;49.77;;;31.70;;
60038;SDS011;45916;52.734;6.544;2022-12-18T05:35:20;51.57;;;33.70;;
60038;SDS011;45916;52.734;6.544;2022-12-18T05:37:46;52.40;;;33.30;;
60038;SDS011;45916;52.734;6.544;2022-12-18T05:40:12;50.07;;;36.07;;
60038;SDS011;45916;52.734;6.544;2022-12-18T05:42:38;52.50;;;36.27;;
60038;SDS011;45916;52.734;6.544;2022-12-18T05:45:04;52.03;;;35.23;;
60038;SDS011;45916;52.734;6.544;2022-12-18T05:47:30;56.73;;;33.63;;
60038;SDS011;45916;52.734;6.544;2022-12-18T05:49:56;54.80;;;35.73;;
60038;SDS011;45916;52.734;6.544;2022-12-18T05:52:21;56.63;;;36.70;;
60038;SDS011;45916;52.734;6.544;2022-12-18T05:54:47;60.93;;;36.50;;
60038;SDS011;45916;52.734;6.544;2022-12-18T05:57:13;60.03;;;37.83;;
60038;SDS011;45916;52.734;6.544;2022-12-18T05:59:39;57.73;;;34.97;;
60038;SDS011;45916;52.734;6.544;2022-12-18T06:02:04;56.00;;;36.37;;
60038;SDS011;45916;52.734;6.544;2022-12-18T06:04:30;52.30;;;34.03;;
60038;SDS011;45916;52.734;6.544;2022-12-18T06:06:56;54.10;;;36.93;;
60038;SDS011;45916;52.734;6.544;2022-12-18T06:09:22;56.67;;;35.27;;
60038;SDS011;45916;52.734;6.544;2022-12-18T06:11:48;52.27;;;35.90;;
60038;SDS011;45916;52.734;6.544;2022-12-18T06:14:16;53.38;;;35.72;;
60038;SDS011;45916;52.734;6.544;2022-12-18T06:16:42;63.07;;;36.20;;
60038;SDS011;45916;52.734;6.544;2022-12-18T06:19:13;53.50;;;35.23;;
60038;SDS011;45916;52.734;6.544;2022-12-18T06:21:40;62.53;;;36.50;;
60038;SDS011;45916;52.734;6.544;2022-12-18T06:24:05;56.87;;;36.67;;
60038;SDS011;45916;52.734;6.544;2022-12-18T06:26:31;61.53;;;35.20;;
60038;SDS011;45916;52.734;6.544;2022-12-18T06:28:57;57.17;;;34.23;;
60038;SDS011;45916;52.734;6.544;2022-12-18T06:31:22;52.73;;;35.00;;
60038;SDS011;45916;52.734;6.544;2022-12-18T06:33:48;50.40;;;32.73;;
60038;SDS011;45916;52.734;6.544;2022-12-18T06:36:14;48.77;;;32.63;;
60038;SDS011;45916;52.734;6.544;2022-12-18T06:38:42;49.53;;;34.97;;
60038;SDS011;45916;52.734;6.544;2022-12-18T06:41:09;45.57;;;30.23;;
60038;SDS011;45916;52.734;6.544;2022-12-18T06:43:36;45.47;;;29.38;;
60038;SDS011;45916;52.734;6.544;2022-12-18T06:46:02;46.60;;;31.53;;
60038;SDS011;45916;52.734;6.544;2022-12-18T06:48:28;46.97;;;32.37;;
60038;SDS011;45916;52.734;6.544;2022-12-18T06:50:54;49.17;;;31.57;;
60038;SDS011;45916;52.734;6.544;2022-12-18T06:53:20;43.20;;;28.70;;
60038;SDS011;45916;52.734;6.544;2022-12-18T06:55:46;45.23;;;32.00;;
60038;SDS011;45916;52.734;6.544;2022-12-18T06:58:12;44.83;;;31.07;;
60038;SDS011;45916;52.734;6.544;2022-12-18T07:00:38;43.97;;;29.67;;
60038;SDS011;45916;52.734;6.544;2022-12-18T07:03:04;52.37;;;32.57;;
60038;SDS011;45916;52.734;6.544;2022-12-18T07:05:29;51.20;;;31.37;;
60038;SDS011;45916;52.734;6.544;2022-12-18T07:07:55;52.53;;;33.33;;
60038;SDS011;45916;52.734;6.544;2022-12-18T07:10:21;53.70;;;33.73;;
60038;SDS011;45916;52.734;6.544;2022-12-18T07:12:46;52.47;;;32.93;;
60038;SDS011;45916;52.734;6.544;2022-12-18T07:15:12;52.03;;;32.23;;
60038;SDS011;45916;52.734;6.544;2022-12-18T07:17:38;54.17;;;32.63;;
60038;SDS011;45916;52.734;6.544;2022-12-18T07:20:03;45.03;;;29.73;;
60038;SDS011;45916;52.734;6.544;2022-12-18T07:22:29;47.10;;;30.57;;
60038;SDS011;45916;52.734;6.544;2022-12-18T07:24:55;52.83;;;31.90;;
60038;SDS011;45916;52.734;6.544;2022-12-18T07:27:21;51.17;;;32.47;;
60038;SDS011;45916;52.734;6.544;2022-12-18T07:29:47;51.53;;;32.90;;
60038;SDS011;45916;52.734;6.544;2022-12-18T07:32:13;50.33;;;30.50;;
60038;SDS011;45916;52.734;6.544;2022-12-18T07:34:39;54.50;;;31.23;;
60038;SDS011;45916;52.734;6.544;2022-12-18T07:37:05;52.37;;;33.93;;
60038;SDS011;45916;52.734;6.544;2022-12-18T07:39:30;51.63;;;31.33;;
60038;SDS011;45916;52.734;6.544;2022-12-18T07:41:56;46.60;;;30.80;;
60038;SDS011;45916;52.734;6.544;2022-12-18T07:44:40;49.27;;;32.23;;
60038;SDS011;45916;52.734;6.544;2022-12-18T07:47:06;47.50;;;32.17;;
60038;SDS011;45916;52.734;6.544;2022-12-18T07:49:32;47.70;;;30.20;;
60038;SDS011;45916;52.734;6.544;2022-12-18T07:51:57;45.40;;;31.03;;
60038;SDS011;45916;52.734;6.544;2022-12-18T07:54:23;51.10;;;31.10;;
60038;SDS011;45916;52.734;6.544;2022-12-18T07:56:50;50.67;;;30.30;;
60038;SDS011;45916;52.734;6.544;2022-12-18T07:59:16;39.20;;;29.67;;
60038;SDS011;45916;52.734;6.544;2022-12-18T08:01:42;43.33;;;30.17;;
60038;SDS011;45916;52.734;6.544;2022-12-18T08:04:08;43.53;;;29.23;;
60038;SDS011;45916;52.734;6.544;2022-12-18T08:06:34;46.50;;;30.90;;
60038;SDS011;45916;52.734;6.544;2022-12-18T08:09:00;47.47;;;31.23;;
60038;SDS011;45916;52.734;6.544;2022-12-18T08:11:26;48.37;;;32.10;;
60038;SDS011;45916;52.734;6.544;2022-12-18T08:13:53;38.43;;;27.57;;
60038;SDS011;45916;52.734;6.544;2022-12-18T08:16:19;45.33;;;30.27;;
60038;SDS011;45916;52.734;6.544;2022-12-18T08:18:45;43.40;;;29.87;;
60038;SDS011;45916;52.734;6.544;2022-12-18T08:21:15;45.47;;;32.47;;
60038;SDS011;45916;52.734;6.544;2022-12-18T08:23:43;39.90;;;28.43;;
60038;SDS011;45916;52.734;6.544;2022-12-18T08:26:12;39.40;;;29.23;;
60038;SDS011;45916;52.734;6.544;2022-12-18T08:28:39;44.80;;;26.87;;
60038;SDS011;45916;52.734;6.544;2022-12-18T08:31:05;42.00;;;27.73;;
60038;SDS011;45916;52.734;6.544;2022-12-18T08:33:32;39.00;;;26.30;;
60038;SDS011;45916;52.734;6.544;2022-12-18T08:35:58;36.93;;;26.30;;
60038;SDS011;45916;52.734;6.544;2022-12-18T08:38:24;34.57;;;26.30;;
60038;SDS011;45916;52.734;6.544;2022-12-18T08:40:54;32.47;;;24.07;;
60038;SDS011;45916;52.734;6.544;2022-12-18T08:43:27;34.97;;;24.43;;
60038;SDS011;45916;52.734;6.544;2022-12-18T08:46:11;30.20;;;22.83;;
60038;SDS011;45916;52.734;6.544;2022-12-18T08:48:40;34.27;;;23.53;;
60038;SDS011;45916;52.734;6.544;2022-12-18T08:51:05;31.50;;;24.30;;
60038;SDS011;45916;52.734;6.544;2022-12-18T08:53:31;31.80;;;22.77;;
60038;SDS011;45916;52.734;6.544;2022-12-18T08:55:57;31.73;;;22.67;;
60038;SDS011;45916;52.734;6.544;2022-12-18T08:58:23;28.33;;;21.33;;
60038;SDS011;45916;52.734;6.544;2022-12-18T09:00:48;28.73;;;21.20;;
60038;SDS011;45916;52.734;6.544;2022-12-18T09:03:18;26.52;;;20.58;;
60038;SDS011;45916;52.734;6.544;2022-12-18T09:05:47;27.88;;;21.45;;
60038;SDS011;45916;52.734;6.544;2022-12-18T09:08:13;24.48;;;20.40;;
60038;SDS011;45916;52.734;6.544;2022-12-18T09:10:46;22.67;;;18.77;;
60038;SDS011;45916;52.734;6.544;2022-12-18T09:13:13;29.27;;;20.42;;
60038;SDS011;45916;52.734;6.544;2022-12-18T09:15:44;27.55;;;19.08;;
60038;SDS011;45916;52.734;6.544;2022-12-18T09:18:12;27.48;;;19.23;;
60038;SDS011;45916;52.734;6.544;2022-12-18T09:20:39;26.40;;;19.20;;
60038;SDS011;45916;52.734;6.544;2022-12-18T09:23:05;23.98;;;18.05;;
60038;SDS011;45916;52.734;6.544;2022-12-18T09:25:32;22.83;;;18.45;;
60038;SDS011;45916;52.734;6.544;2022-12-18T09:28:00;22.98;;;18.17;;
60038;SDS011;45916;52.734;6.544;2022-12-18T09:30:31;23.75;;;18.05;;
60038;SDS011;45916;52.734;6.544;2022-12-18T09:32:59;21.83;;;16.98;;
60038;SDS011;45916;52.734;6.544;2022-12-18T09:35:25;22.77;;;17.58;;
60038;SDS011;45916;52.734;6.544;2022-12-18T09:37:52;22.55;;;17.10;;
60038;SDS011;45916;52.734;6.544;2022-12-18T09:40:19;22.95;;;16.98;;
60038;SDS011;45916;52.734;6.544;2022-12-18T09:45:16;19.13;;;16.60;;
60038;SDS011;45916;52.734;6.544;2022-12-18T09:47:43;21.85;;;17.65;;
60038;SDS011;45916;52.734;6.544;2022-12-18T09:50:31;21.45;;;16.67;;
60038;SDS011;45916;52.734;6.544;2022-12-18T09:53:02;21.30;;;15.82;;
60038;SDS011;45916;52.734;6.544;2022-12-18T09:55:42;22.52;;;15.30;;
60038;SDS011;45916;52.734;6.544;2022-12-18T09:58:13;20.65;;;15.57;;
60038;SDS011;45916;52.734;6.544;2022-12-18T10:00:53;20.55;;;15.82;;
60038;SDS011;45916;52.734;6.544;2022-12-18T10:03:20;21.08;;;16.23;;
60038;SDS011;45916;52.734;6.544;2022-12-18T10:05:53;20.33;;;15.50;;
60038;SDS011;45916;52.734;6.544;2022-12-18T10:16:56;18.95;;;16.95;;
60038;SDS011;45916;52.734;6.544;2022-12-18T10:19:37;21.08;;;15.90;;
60038;SDS011;45916;52.734;6.544;2022-12-18T10:22:30;19.60;;;16.50;;
60038;SDS011;45916;52.734;6.544;2022-12-18T10:28:07;20.83;;;16.08;;
60038;SDS011;45916;52.734;6.544;2022-12-18T10:30:37;22.42;;;17.75;;
60038;SDS011;45916;52.734;6.544;2022-12-18T10:33:04;19.70;;;16.20;;
60038;SDS011;45916;52.734;6.544;2022-12-18T10:35:30;23.27;;;16.67;;
60038;SDS011;45916;52.734;6.544;2022-12-18T10:38:38;19.27;;;14.60;;
60038;SDS011;45916;52.734;6.544;2022-12-18T10:43:37;21.77;;;16.10;;
60038;SDS011;45916;52.734;6.544;2022-12-18T10:48:36;18.90;;;14.73;;
60038;SDS011;45916;52.734;6.544;2022-12-18T10:51:24;20.08;;;15.77;;
60038;SDS011;45916;52.734;6.544;2022-12-18T10:56:49;16.83;;;13.68;;
60038;SDS011;45916;52.734;6.544;2022-12-18T10:59:15;18.65;;;15.13;;
60038;SDS011;45916;52.734;6.544;2022-12-18T11:04:24;18.55;;;14.43;;
60038;SDS011;45916;52.734;6.544;2022-12-18T11:06:59;20.58;;;14.65;;
60038;SDS011;45916;52.734;6.544;2022-12-18T11:09:30;17.25;;;13.57;;
60038;SDS011;45916;52.734;6.544;2022-12-18T11:12:04;19.92;;;13.95;;
60038;SDS011;45916;52.734;6.544;2022-12-18T11:19:57;15.15;;;12.00;;
60038;SDS011;45916;52.734;6.544;2022-12-18T11:22:25;17.52;;;12.93;;
60038;SDS011;45916;52.734;6.544;2022-12-18T11:27:21;16.73;;;11.05;;
60038;SDS011;45916;52.734;6.544;2022-12-18T11:29:47;15.52;;;11.90;;
60038;SDS011;45916;52.734;6.544;2022-12-18T11:35:17;14.52;;;11.88;;
60038;SDS011;45916;52.734;6.544;2022-12-18T11:37:43;14.75;;;12.18;;
60038;SDS011;45916;52.734;6.544;2022-12-18T11:40:22;14.57;;;11.48;;
60038;SDS011;45916;52.734;6.544;2022-12-18T11:45:26;15.30;;;11.80;;
60038;SDS011;45916;52.734;6.544;2022-12-18T11:53:02;14.13;;;11.85;;
60038;SDS011;45916;52.734;6.544;2022-12-18T11:58:27;11.95;;;9.98;;
60038;SDS011;45916;52.734;6.544;2022-12-18T12:09:26;12.52;;;10.15;;
60038;SDS011;45916;52.734;6.544;2022-12-18T12:14:54;14.23;;;10.20;;
60038;SDS011;45916;52.734;6.544;2022-12-18T12:17:36;13.57;;;9.40;;
60038;SDS011;45916;52.734;6.544;2022-12-18T12:20:14;11.68;;;9.05;;
60038;SDS011;45916;52.734;6.544;2022-12-18T12:22:58;14.30;;;8.88;;
60038;SDS011;45916;52.734;6.544;2022-12-18T12:25:52;13.43;;;9.68;;
60038;SDS011;45916;52.734;6.544;2022-12-18T12:34:26;14.43;;;9.55;;
60038;SDS011;45916;52.734;6.544;2022-12-18T12:37:17;12.75;;;9.35;;
60038;SDS011;45916;52.734;6.544;2022-12-18T12:39:50;12.65;;;9.45;;
60038;SDS011;45916;52.734;6.544;2022-12-18T12:42:20;14.73;;;11.03;;
60038;SDS011;45916;52.734;6.544;2022-12-18T12:45:22;11.13;;;8.30;;
60038;SDS011;45916;52.734;6.544;2022-12-18T12:47:55;15.45;;;9.02;;
60038;SDS011;45916;52.734;6.544;2022-12-18T12:50:22;12.70;;;8.60;;
60038;SDS011;45916;52.734;6.544;2022-12-18T12:52:51;11.75;;;8.95;;
60038;SDS011;45916;52.734;6.544;2022-12-18T12:55:22;11.70;;;8.18;;
60038;SDS011;45916;52.734;6.544;2022-12-18T13:00:30;13.57;;;9.90;;
60038;SDS011;45916;52.734;6.544;2022-12-18T13:06:03;11.88;;;8.70;;
60038;SDS011;45916;52.734;6.544;2022-12-18T13:08:59;11.57;;;8.82;;
60038;SDS011;45916;52.734;6.544;2022-12-18T13:11:34;11.10;;;8.95;;
60038;SDS011;45916;52.734;6.544;2022-12-18T13:14:34;13.43;;;9.25;;
60038;SDS011;45916;52.734;6.544;2022-12-18T13:25:03;12.52;;;8.95;;
60038;SDS011;45916;52.734;6.544;2022-12-18T13:28:08;12.40;;;8.27;;
60038;SDS011;45916;52.734;6.544;2022-12-18T13:30:55;11.48;;;8.75;;
60038;SDS011;45916;52.734;6.544;2022-12-18T13:38:22;13.07;;;9.00;;
60038;SDS011;45916;52.734;6.544;2022-12-18T13:48:25;12.80;;;10.02;;
60038;SDS011;45916;52.734;6.544;2022-12-18T13:53:39;14.48;;;10.02;;
60038;SDS011;45916;52.734;6.544;2022-12-18T13:56:09;12.57;;;9.20;;
60038;SDS011;45916;52.734;6.544;2022-12-18T13:58:41;13.00;;;9.35;;
60038;SDS011;45916;52.734;6.544;2022-12-18T14:01:21;13.70;;;10.50;;
60038;SDS011;45916;52.734;6.544;2022-12-18T14:03:47;13.25;;;9.52;;
60038;SDS011;45916;52.734;6.544;2022-12-18T14:06:13;16.75;;;10.40;;
60038;SDS011;45916;52.734;6.544;2022-12-18T14:08:41;14.57;;;10.50;;
60038;SDS011;45916;52.734;6.544;2022-12-18T14:11:20;14.00;;;10.50;;
60038;SDS011;45916;52.734;6.544;2022-12-18T14:13:48;11.70;;;9.15;;
60038;SDS011;45916;52.734;6.544;2022-12-18T14:16:14;14.80;;;10.95;;
60038;SDS011;45916;52.734;6.544;2022-12-18T14:18:43;12.68;;;9.55;;
60038;SDS011;45916;52.734;6.544;2022-12-18T14:21:27;12.30;;;9.98;;
60038;SDS011;45916;52.734;6.544;2022-12-18T14:24:14;15.80;;;10.23;;
60038;SDS011;45916;52.734;6.544;2022-12-18T14:26:44;13.10;;;10.05;;
60038;SDS011;45916;52.734;6.544;2022-12-18T14:29:21;15.05;;;10.35;;
60038;SDS011;45916;52.734;6.544;2022-12-18T14:32:09;14.50;;;10.45;;
60038;SDS011;45916;52.734;6.544;2022-12-18T14:34:42;11.40;;;9.38;;
60038;SDS011;45916;52.734;6.544;2022-12-18T14:37:23;13.52;;;10.48;;
60038;SDS011;45916;52.734;6.544;2022-12-18T14:39:55;13.52;;;9.88;;
60038;SDS011;45916;52.734;6.544;2022-12-18T14:42:26;13.98;;;10.15;;
60038;SDS011;45916;52.734;6.544;2022-12-18T14:47:56;12.77;;;9.95;;
60038;SDS011;45916;52.734;6.544;2022-12-18T14:50:22;14.57;;;10.77;;
60038;SDS011;45916;52.734;6.544;2022-12-18T14:52:48;14.27;;;10.90;;
60038;SDS011;45916;52.734;6.544;2022-12-18T14:55:15;14.13;;;10.70;;
60038;SDS011;45916;52.734;6.544;2022-12-18T14:57:43;14.27;;;11.43;;
60038;SDS011;45916;52.734;6.544;2022-12-18T15:00:19;15.48;;;11.05;;
60038;SDS011;45916;52.734;6.544;2022-12-18T15:02:51;15.70;;;11.88;;
60038;SDS011;45916;52.734;6.544;2022-12-18T15:05:21;14.68;;;11.98;;
60038;SDS011;45916;52.734;6.544;2022-12-18T15:07:52;16.70;;;11.73;;
60038;SDS011;45916;52.734;6.544;2022-12-18T15:10:21;15.05;;;11.45;;
60038;SDS011;45916;52.734;6.544;2022-12-18T15:18:00;14.60;;;11.65;;
60038;SDS011;45916;52.734;6.544;2022-12-18T15:20:39;15.90;;;13.20;;
60038;SDS011;45916;52.734;6.544;2022-12-18T15:23:18;16.25;;;12.75;;
60038;SDS011;45916;52.734;6.544;2022-12-18T15:25:54;14.55;;;12.30;;
60038;SDS011;45916;52.734;6.544;2022-12-18T15:31:22;16.95;;;13.88;;
60038;SDS011;45916;52.734;6.544;2022-12-18T15:36:22;18.45;;;12.85;;
60038;SDS011;45916;52.734;6.544;2022-12-18T15:38:49;15.80;;;12.80;;
60038;SDS011;45916;52.734;6.544;2022-12-18T15:41:17;18.77;;;14.68;;
60038;SDS011;45916;52.734;6.544;2022-12-18T15:43:45;17.98;;;13.77;;
60038;SDS011;45916;52.734;6.544;2022-12-18T15:46:15;18.20;;;14.32;;
60038;SDS011;45916;52.734;6.544;2022-12-18T15:48:42;17.65;;;14.20;;
60038;SDS011;45916;52.734;6.544;2022-12-18T15:51:23;18.92;;;14.02;;
60038;SDS011;45916;52.734;6.544;2022-12-18T15:53:52;17.23;;;13.98;;
60038;SDS011;45916;52.734;6.544;2022-12-18T15:56:20;18.80;;;15.00;;
60038;SDS011;45916;52.734;6.544;2022-12-18T15:59:13;17.48;;;15.25;;
60038;SDS011;45916;52.734;6.544;2022-12-18T16:01:41;17.63;;;14.73;;
60038;SDS011;45916;52.734;6.544;2022-12-18T16:04:11;19.93;;;15.87;;
60038;SDS011;45916;52.734;6.544;2022-12-18T16:06:38;19.10;;;14.27;;
60038;SDS011;45916;52.734;6.544;2022-12-18T16:09:05;18.75;;;15.02;;
60038;SDS011;45916;52.734;6.544;2022-12-18T16:11:31;20.38;;;15.40;;
60038;SDS011;45916;52.734;6.544;2022-12-18T16:14:28;20.13;;;15.40;;
60038;SDS011;45916;52.734;6.544;2022-12-18T16:16:56;19.08;;;15.48;;
60038;SDS011;45916;52.734;6.544;2022-12-18T16:19:24;17.33;;;14.15;;
60038;SDS011;45916;52.734;6.544;2022-12-18T16:21:50;18.85;;;14.98;;
60038;SDS011;45916;52.734;6.544;2022-12-18T16:24:18;19.20;;;16.27;;
60038;SDS011;45916;52.734;6.544;2022-12-18T16:26:49;22.98;;;16.65;;
60038;SDS011;45916;52.734;6.544;2022-12-18T16:29:17;20.77;;;15.88;;
60038;SDS011;45916;52.734;6.544;2022-12-18T16:31:43;19.63;;;15.88;;
60038;SDS011;45916;52.734;6.544;2022-12-18T16:34:09;17.85;;;14.95;;
60038;SDS011;45916;52.734;6.544;2022-12-18T16:36:35;18.52;;;14.68;;
60038;SDS011;45916;52.734;6.544;2022-12-18T16:39:01;20.80;;;15.88;;
60038;SDS011;45916;52.734;6.544;2022-12-18T16:41:27;17.75;;;15.70;;
60038;SDS011;45916;52.734;6.544;2022-12-18T16:43:56;19.40;;;15.15;;
60038;SDS011;45916;52.734;6.544;2022-12-18T16:46:22;19.20;;;15.38;;
60038;SDS011;45916;52.734;6.544;2022-12-18T16:48:48;18.05;;;15.38;;
60038;SDS011;45916;52.734;6.544;2022-12-18T16:51:14;18.08;;;14.43;;
60038;SDS011;45916;52.734;6.544;2022-12-18T16:53:40;16.75;;;13.85;;
60038;SDS011;45916;52.734;6.544;2022-12-18T16:56:06;19.25;;;15.50;;
60038;SDS011;45916;52.734;6.544;2022-12-18T16:58:32;18.15;;;14.50;;
60038;SDS011;45916;52.734;6.544;2022-12-18T17:00:58;19.25;;;16.05;;
60038;SDS011;45916;52.734;6.544;2022-12-18T17:03:24;20.17;;;15.52;;
60038;SDS011;45916;52.734;6.544;2022-12-18T17:05:50;17.85;;;14.57;;